Overview Statistics Trail Chart Weather Telemetry Raw packets
 

This is the latest recevied weather packets stored in our database for station/object SV9TNF-52. If no packets are shown the sender has not sent any weather packets the latest 10 day(s).

<< 59 60 61 62 63 64 65 >>
Time Temp. Humidity Pressure Rain* Wind** Luminosity Snow
1788264196 31.11° C 51% 1020 hPa 0 mm 4.92 m/s, 36° - -
1788263896 30.56° C 51% 1020 hPa 0 mm 3.58 m/s, 275° - -
1788263596 30.56° C 51% 1020 hPa 0 mm 2.68 m/s, 90° - -
1788263295 30.56° C 50% 1020 hPa 0 mm 8.05 m/s, 355° - -
1788262995 31.67° C 50% 1020 hPa 0 mm 2.68 m/s, 13° - -
1788262695 31.11° C 50% 1020 hPa 0 mm 4.02 m/s, 248° - -
1788262396 30.56° C 53% 1020 hPa 0 mm 8.05 m/s, 304° - -
1788262095 30° C 54% 1020 hPa 0 mm 3.13 m/s, 57° - -
1788261795 30° C 50% 1020 hPa 0 mm 4.92 m/s, 13° - -
1788261495 29.44° C 53% 1020 hPa 0 mm 10.28 m/s, 38° - -
1788261195 29.44° C 53% 1020 hPa 0 mm 9.83 m/s, 359° - -
1788260895 29.44° C 52% 1020 hPa 0 mm 9.39 m/s, 346° - -
1788260594 30.56° C 52% 1020 hPa 0 mm 8.05 m/s, 19° - -
1788260294 31.11° C 52% 1020 hPa 0 mm 0.89 m/s, 130° - -
1788259995 31.67° C 51% 1020 hPa 0 mm 2.24 m/s, 114° - -
1788259694 30.56° C 54% 1020 hPa 0 mm 3.58 m/s, 82° - -
1788259394 30.56° C 54% 1020 hPa 0 mm 0.89 m/s, 138° - -
1788259094 29.44° C 58% 1020 hPa 0 mm 8.94 m/s, 78° - -
1788258794 29.44° C 59% 1020 hPa 0 mm 5.36 m/s, 3° - -
1788258494 28.89° C 59% 1020 hPa 0 mm 10.28 m/s, 4° - -
1788258194 29.44° C 56% 1020 hPa 0 mm 15.2 m/s, 7° - -
1788257893 29.44° C 57% 1020 hPa 0 mm 11.62 m/s, 18° - -
1788257594 31.11° C 54% 1020 hPa 0 mm 6.26 m/s, 354° - -
1788257293 31.67° C 52% 1020 hPa 0 mm 7.15 m/s, 334° - -
1788256994 32.78° C 48% 1020 hPa 0 mm 4.47 m/s, 212° - -

* Rain latest hour (hover to see other rain measurements)
** Current wind speed in m/s (hover to see current wind gust speed)